createdAt,value
2022-12-31T00:02:28.614Z,82.03
2022-12-31T00:05:19.593Z,82.15
2022-12-31T00:08:08.892Z,81.94
2022-12-31T00:10:58.265Z,82.27
2022-12-31T00:13:48.159Z,82.40
2022-12-31T00:16:40.305Z,82.06
2022-12-31T00:19:29.566Z,82.62
2022-12-31T00:22:20.181Z,82.16
2022-12-31T00:25:10.994Z,82.21
2022-12-31T00:28:00.265Z,82.00
2022-12-31T00:30:49.603Z,82.26
2022-12-31T00:33:39.754Z,82.45
2022-12-31T00:36:32.173Z,82.73
2022-12-31T00:39:22.751Z,82.36
2022-12-31T00:42:11.998Z,82.67
2022-12-31T00:45:01.226Z,82.37
2022-12-31T00:47:50.468Z,82.60
2022-12-31T00:50:39.797Z,82.60
2022-12-31T00:53:30.323Z,82.77
2022-12-31T00:56:23.822Z,82.92
2022-12-31T00:59:13.037Z,82.75
2022-12-31T01:02:02.402Z,82.94
2022-12-31T01:04:52.123Z,83.10
2022-12-31T01:07:41.454Z,83.41
2022-12-31T01:10:48.408Z,83.12
2022-12-31T01:13:39.027Z,83.42
2022-12-31T01:16:32.638Z,83.55
2022-12-31T01:19:25.262Z,83.61
2022-12-31T01:22:14.489Z,83.45
2022-12-31T01:25:03.680Z,83.41
2022-12-31T01:27:52.915Z,83.92
2022-12-31T01:30:43.564Z,84.36
2022-12-31T01:33:32.764Z,84.14
2022-12-31T01:36:26.586Z,84.58
2022-12-31T01:39:16.129Z,85.14
2022-12-31T01:42:05.821Z,85.19
2022-12-31T01:44:57.032Z,85.58
2022-12-31T01:47:51.786Z,85.03
2022-12-31T01:50:43.033Z,84.93
2022-12-31T01:53:32.991Z,84.88
2022-12-31T01:56:24.875Z,84.85
2022-12-31T01:59:16.597Z,84.71
2022-12-31T02:02:06.952Z,84.59
2022-12-31T02:05:01.422Z,84.48
2022-12-31T02:07:52.051Z,84.84
2022-12-31T02:10:41.353Z,84.83
2022-12-31T02:13:30.605Z,84.83
2022-12-31T02:16:28.584Z,84.85
2022-12-31T02:19:56.830Z,84.88
2022-12-31T02:23:30.406Z,85.01
2022-12-31T02:26:54.808Z,85.11
2022-12-31T02:30:11.351Z,85.47
2022-12-31T02:33:16.078Z,85.19
2022-12-31T02:36:10.992Z,85.22
2022-12-31T02:39:00.803Z,85.48
2022-12-31T02:41:54.026Z,85.33
2022-12-31T02:44:43.739Z,85.67
2022-12-31T02:47:51.386Z,86.07
2022-12-31T02:50:56.456Z,85.54
2022-12-31T02:54:21.374Z,85.73
2022-12-31T02:57:17.672Z,85.67
2022-12-31T03:00:26.822Z,85.65
2022-12-31T03:03:18.384Z,85.40
2022-12-31T03:06:10.763Z,85.80
2022-12-31T03:09:16.319Z,85.69
2022-12-31T03:12:25.379Z,85.99
2022-12-31T03:15:21.483Z,86.04
2022-12-31T03:18:14.174Z,86.03
2022-12-31T03:21:30.886Z,85.93
2022-12-31T03:24:37.462Z,85.78
2022-12-31T03:27:29.230Z,86.00
2022-12-31T03:30:20.390Z,85.82
2022-12-31T03:33:10.353Z,85.97
2022-12-31T03:35:59.722Z,86.23
2022-12-31T03:38:52.802Z,86.07
2022-12-31T03:41:42.102Z,86.11
2022-12-31T03:44:31.514Z,85.83
2022-12-31T03:47:20.881Z,86.28
2022-12-31T03:50:12.941Z,86.52
2022-12-31T03:53:02.522Z,86.98
2022-12-31T03:55:54.757Z,86.65
2022-12-31T03:58:44.005Z,86.48
2022-12-31T04:01:34.097Z,86.63
2022-12-31T04:04:23.676Z,86.43
2022-12-31T04:07:13.192Z,86.63
2022-12-31T04:10:02.682Z,86.54
2022-12-31T04:12:53.339Z,86.41
2022-12-31T04:15:42.599Z,86.52
2022-12-31T04:18:31.837Z,86.68
2022-12-31T04:21:21.162Z,86.52
2022-12-31T04:24:10.726Z,86.97
2022-12-31T04:27:07.039Z,86.83
2022-12-31T04:29:58.002Z,86.73
2022-12-31T04:32:47.216Z,87.04
2022-12-31T04:35:36.467Z,86.99
2022-12-31T04:38:25.749Z,86.88
2022-12-31T04:41:18.090Z,86.86
2022-12-31T04:44:07.405Z,86.89
2022-12-31T04:46:58.091Z,86.71
2022-12-31T04:49:47.322Z,86.73
2022-12-31T04:52:42.429Z,86.83
2022-12-31T04:55:31.854Z,86.91
2022-12-31T04:58:21.595Z,86.80
2022-12-31T05:01:11.467Z,87.00
2022-12-31T05:04:02.189Z,86.98
2022-12-31T05:06:51.528Z,87.19
2022-12-31T05:09:40.909Z,87.07
2022-12-31T05:12:30.101Z,86.89
2022-12-31T05:15:19.381Z,86.85
2022-12-31T05:18:09.152Z,87.25
2022-12-31T05:21:00.239Z,87.30
2022-12-31T05:23:50.298Z,87.09
2022-12-31T05:26:39.552Z,87.21
2022-12-31T05:29:28.906Z,87.10
2022-12-31T05:32:18.400Z,87.16
2022-12-31T05:35:09.003Z,87.49
2022-12-31T05:38:01.193Z,87.61
2022-12-31T05:40:50.389Z,87.42
2022-12-31T05:43:39.637Z,87.73
2022-12-31T05:46:29.576Z,87.86
2022-12-31T05:49:18.879Z,87.96
2022-12-31T05:52:08.499Z,87.93
2022-12-31T05:54:59.895Z,88.03
2022-12-31T05:57:49.224Z,88.31
2022-12-31T06:00:38.497Z,88.22
2022-12-31T06:03:27.821Z,88.03
2022-12-31T06:06:17.143Z,88.00
2022-12-31T06:09:06.488Z,88.09
2022-12-31T06:11:57.282Z,88.28
2022-12-31T06:14:46.590Z,88.22
2022-12-31T06:17:35.794Z,88.37
2022-12-31T06:20:25.048Z,88.35
2022-12-31T06:23:14.306Z,88.28
2022-12-31T06:26:03.759Z,88.16
2022-12-31T06:28:54.532Z,88.29
2022-12-31T06:31:43.832Z,88.58
2022-12-31T06:34:33.138Z,88.27
2022-12-31T06:37:22.477Z,88.33
2022-12-31T06:40:13.383Z,88.26
2022-12-31T06:43:03.211Z,88.19
2022-12-31T06:45:53.853Z,88.36
2022-12-31T06:48:44.860Z,88.43
2022-12-31T06:51:34.186Z,88.20
2022-12-31T06:54:23.629Z,88.47
2022-12-31T06:57:13.873Z,88.09
2022-12-31T07:00:05.566Z,88.39
2022-12-31T07:03:20.907Z,88.28
2022-12-31T07:06:14.904Z,88.32
2022-12-31T07:09:13.523Z,88.20
2022-12-31T07:12:13.915Z,88.23
2022-12-31T07:15:12.806Z,88.40
2022-12-31T07:18:16.203Z,88.08
2022-12-31T07:21:09.195Z,88.30
2022-12-31T07:23:59.160Z,87.94
2022-12-31T07:27:09.559Z,87.92
2022-12-31T07:30:07.820Z,88.27
2022-12-31T07:33:35.796Z,87.93
2022-12-31T07:36:48.190Z,88.56
2022-12-31T07:39:46.821Z,88.63
2022-12-31T07:42:46.268Z,88.57
2022-12-31T07:45:45.190Z,88.56
2022-12-31T07:48:36.791Z,88.45
2022-12-31T07:51:28.902Z,88.58
2022-12-31T07:54:18.254Z,88.40
2022-12-31T07:57:07.686Z,88.48
2022-12-31T08:00:08.038Z,88.45
2022-12-31T08:03:25.159Z,88.50
2022-12-31T08:06:26.677Z,88.18
2022-12-31T08:09:38.237Z,88.33
2022-12-31T08:12:30.618Z,88.69
2022-12-31T08:15:26.862Z,88.48
2022-12-31T08:18:19.998Z,88.38
2022-12-31T08:21:29.459Z,88.32
2022-12-31T08:24:35.892Z,88.21
2022-12-31T08:27:35.386Z,88.41
2022-12-31T08:30:29.352Z,88.51
2022-12-31T08:33:27.525Z,88.62
2022-12-31T08:36:30.710Z,88.66
2022-12-31T08:39:35.038Z,88.29
2022-12-31T08:42:32.455Z,88.35
2022-12-31T08:45:29.595Z,88.35
2022-12-31T08:48:32.035Z,88.32
2022-12-31T08:51:25.681Z,88.42
2022-12-31T08:54:15.725Z,88.29
2022-12-31T08:57:16.243Z,88.41
2022-12-31T09:00:12.452Z,88.46
2022-12-31T09:03:27.131Z,88.76
2022-12-31T09:06:28.349Z,88.52
2022-12-31T09:09:33.265Z,88.65
2022-12-31T09:12:30.869Z,88.65
2022-12-31T09:15:29.311Z,88.89
2022-12-31T09:18:19.235Z,88.83
2022-12-31T09:21:11.345Z,88.85
2022-12-31T09:24:09.141Z,88.96
2022-12-31T09:27:11.925Z,88.77
2022-12-31T09:30:06.056Z,88.89
2022-12-31T09:33:03.143Z,89.13
2022-12-31T09:35:56.443Z,89.19
2022-12-31T09:39:06.798Z,88.88
2022-12-31T09:42:51.000Z,89.16
2022-12-31T09:45:58.313Z,89.22
2022-12-31T09:49:57.556Z,89.18
2022-12-31T09:53:08.236Z,89.15
2022-12-31T09:56:06.538Z,89.17
2022-12-31T09:59:07.058Z,89.01
2022-12-31T10:02:03.854Z,89.12
2022-12-31T10:05:25.425Z,89.21
2022-12-31T10:08:29.788Z,89.21
2022-12-31T10:11:30.612Z,89.12
2022-12-31T10:14:47.121Z,89.24
2022-12-31T10:17:55.918Z,88.97
2022-12-31T10:20:59.273Z,88.67
2022-12-31T10:24:01.296Z,89.05
2022-12-31T10:27:22.382Z,88.87
2022-12-31T10:30:18.393Z,89.17
2022-12-31T10:33:18.141Z,88.98
2022-12-31T10:36:15.458Z,89.11
2022-12-31T10:39:22.180Z,88.67
2022-12-31T10:43:05.061Z,88.81
2022-12-31T10:46:37.229Z,88.79
2022-12-31T10:50:04.424Z,88.80
2022-12-31T10:53:29.665Z,88.84
2022-12-31T10:57:22.197Z,88.86
2022-12-31T11:00:19.902Z,89.09
2022-12-31T11:04:13.429Z,89.27
2022-12-31T11:07:41.317Z,89.09
2022-12-31T11:10:58.059Z,88.78
2022-12-31T11:14:49.390Z,88.63
2022-12-31T11:17:54.885Z,89.04
2022-12-31T11:21:09.287Z,88.71
2022-12-31T11:24:13.654Z,88.85
2022-12-31T11:27:24.729Z,88.67
2022-12-31T11:30:24.611Z,89.38
2022-12-31T11:33:28.938Z,88.99
2022-12-31T11:36:29.873Z,88.96
2022-12-31T11:39:41.022Z,88.87
2022-12-31T11:42:45.424Z,88.68
2022-12-31T11:46:02.295Z,88.74
2022-12-31T11:49:12.919Z,88.91
2022-12-31T11:52:43.500Z,88.98
2022-12-31T11:55:47.610Z,88.92
2022-12-31T11:58:37.129Z,88.93
2022-12-31T12:01:31.962Z,88.77
2022-12-31T12:04:22.825Z,88.87
2022-12-31T12:07:15.837Z,88.74
2022-12-31T12:10:18.192Z,88.90
2022-12-31T12:13:23.261Z,88.97
2022-12-31T12:16:12.727Z,88.68
2022-12-31T12:19:09.325Z,88.94
2022-12-31T12:22:10.361Z,88.80
2022-12-31T12:25:06.836Z,88.87
2022-12-31T12:27:56.343Z,88.78
2022-12-31T12:30:46.212Z,88.64
2022-12-31T12:33:46.561Z,87.15
2022-12-31T12:36:35.887Z,88.23
2022-12-31T12:39:30.556Z,87.75
2022-12-31T12:42:19.796Z,87.55
2022-12-31T12:45:17.973Z,86.19
2022-12-31T12:48:19.631Z,87.25
2022-12-31T12:51:28.696Z,87.35
2022-12-31T12:54:39.325Z,87.48
2022-12-31T12:57:35.902Z,85.91
2022-12-31T13:00:34.769Z,85.60
2022-12-31T13:07:25.938Z,87.08
2022-12-31T13:10:38.150Z,87.30
2022-12-31T13:13:38.023Z,86.42
2022-12-31T13:16:40.116Z,86.30
2022-12-31T13:19:37.796Z,85.92
2022-12-31T13:22:34.925Z,85.27
2022-12-31T13:25:33.979Z,86.08
2022-12-31T13:28:26.608Z,86.35
2022-12-31T13:31:23.237Z,86.10
2022-12-31T13:34:19.212Z,85.27
2022-12-31T13:37:26.485Z,83.91
2022-12-31T13:40:25.981Z,84.63
2022-12-31T13:43:29.283Z,83.28
2022-12-31T13:46:27.996Z,83.54
2022-12-31T13:49:24.115Z,83.75
2022-12-31T13:52:35.913Z,82.17
2022-12-31T13:55:34.832Z,82.81
2022-12-31T13:58:37.334Z,83.26
2022-12-31T14:01:35.369Z,82.36
2022-12-31T14:04:36.793Z,82.08
2022-12-31T14:07:43.449Z,80.98
2022-12-31T14:11:02.522Z,81.84
2022-12-31T14:14:11.961Z,81.73
2022-12-31T14:17:14.334Z,82.11
2022-12-31T14:20:19.907Z,81.82
2022-12-31T14:23:23.031Z,81.51
2022-12-31T14:26:23.041Z,81.11
2022-12-31T14:29:30.939Z,81.56
2022-12-31T14:33:03.830Z,81.22
2022-12-31T14:36:11.340Z,81.78
2022-12-31T14:39:21.329Z,80.96
2022-12-31T14:42:25.736Z,81.51
2022-12-31T14:45:36.028Z,81.36
2022-12-31T14:48:41.361Z,80.81
2022-12-31T14:51:32.660Z,80.33
2022-12-31T14:54:30.690Z,80.38
2022-12-31T14:57:28.839Z,80.32
2022-12-31T15:00:35.487Z,80.55
2022-12-31T15:03:33.874Z,79.82
2022-12-31T15:06:52.052Z,79.95
2022-12-31T15:10:12.621Z,80.01
2022-12-31T15:13:08.878Z,80.38
2022-12-31T15:16:43.669Z,80.33
2022-12-31T15:20:16.703Z,79.67
2022-12-31T15:23:21.632Z,80.09
2022-12-31T15:26:24.402Z,80.40
2022-12-31T15:29:27.869Z,80.46
2022-12-31T15:32:23.951Z,80.84
2022-12-31T15:35:30.756Z,80.79
2022-12-31T15:38:37.067Z,81.15
2022-12-31T15:41:38.669Z,81.10
2022-12-31T15:44:34.006Z,81.51
2022-12-31T15:47:31.840Z,81.69
2022-12-31T15:50:25.102Z,81.55
2022-12-31T15:53:27.741Z,81.73
2022-12-31T15:56:23.038Z,81.87
2022-12-31T15:59:16.301Z,82.08
2022-12-31T16:02:05.654Z,82.51
2022-12-31T16:04:57.676Z,82.48
2022-12-31T16:07:47.530Z,82.52
2022-12-31T16:10:37.417Z,82.21
2022-12-31T16:13:29.178Z,82.19
2022-12-31T16:16:24.748Z,82.68
2022-12-31T16:19:31.779Z,82.90
2022-12-31T16:22:29.481Z,83.25
2022-12-31T16:25:31.018Z,83.36
2022-12-31T16:28:24.677Z,83.68
2022-12-31T16:31:18.943Z,83.88
2022-12-31T16:34:14.703Z,83.85
2022-12-31T16:37:06.287Z,83.50
2022-12-31T16:40:21.505Z,84.01
2022-12-31T16:43:29.165Z,83.94
2022-12-31T16:46:23.069Z,84.13
2022-12-31T16:49:21.404Z,84.16
2022-12-31T16:52:28.463Z,84.45
2022-12-31T16:55:22.753Z,84.34
2022-12-31T16:58:20.901Z,84.45
2022-12-31T17:01:19.104Z,84.39
2022-12-31T17:04:13.710Z,84.49
2022-12-31T17:07:37.264Z,84.70
2022-12-31T17:10:35.143Z,84.85
2022-12-31T17:13:30.931Z,85.27
2022-12-31T17:16:20.791Z,84.87
2022-12-31T17:19:39.005Z,85.08
2022-12-31T17:22:36.922Z,84.91
2022-12-31T17:25:31.278Z,85.18
2022-12-31T17:28:24.355Z,85.37
2022-12-31T17:31:36.240Z,85.16
2022-12-31T17:34:30.638Z,85.38
2022-12-31T17:37:25.052Z,85.33
2022-12-31T17:40:50.768Z,85.24
2022-12-31T17:43:41.373Z,85.66
2022-12-31T17:46:30.919Z,85.66
2022-12-31T17:49:31.682Z,85.61
2022-12-31T17:52:20.921Z,85.28
2022-12-31T17:55:10.132Z,85.71
2022-12-31T17:58:06.231Z,85.68
2022-12-31T18:00:56.187Z,85.71
2022-12-31T18:03:45.710Z,85.77
2022-12-31T18:06:35.010Z,86.08
2022-12-31T18:09:24.726Z,86.16
2022-12-31T18:12:15.723Z,86.00
2022-12-31T18:15:09.223Z,86.11
2022-12-31T18:17:58.565Z,85.79
2022-12-31T18:20:49.114Z,85.84
2022-12-31T18:23:42.611Z,85.55
2022-12-31T18:26:32.736Z,85.84
2022-12-31T18:29:23.703Z,85.67
2022-12-31T18:32:23.779Z,85.79
2022-12-31T18:35:48.677Z,85.87
2022-12-31T18:38:26.401Z,85.70
2022-12-31T18:41:21.320Z,85.83
2022-12-31T18:44:14.963Z,86.29
2022-12-31T18:47:04.600Z,86.36
2022-12-31T18:49:55.292Z,86.02
2022-12-31T18:52:44.906Z,86.47
2022-12-31T18:55:40.326Z,86.56
2022-12-31T18:58:29.541Z,86.87
2022-12-31T19:01:29.032Z,86.76
2022-12-31T19:04:27.584Z,86.68
2022-12-31T19:07:18.553Z,86.55
2022-12-31T19:10:08.836Z,86.41
2022-12-31T19:12:58.169Z,86.86
2022-12-31T19:15:50.098Z,86.88
2022-12-31T19:18:39.315Z,86.92
2022-12-31T19:21:28.580Z,86.92
2022-12-31T19:24:21.986Z,86.78
2022-12-31T19:27:17.089Z,86.86
2022-12-31T19:30:08.005Z,86.41
2022-12-31T19:32:57.662Z,86.76
2022-12-31T19:35:47.897Z,86.80
2022-12-31T19:38:37.201Z,86.86
2022-12-31T19:41:27.893Z,86.88
2022-12-31T19:44:19.207Z,86.95
2022-12-31T19:47:12.965Z,87.07
2022-12-31T19:50:02.275Z,87.18
2022-12-31T19:52:55.259Z,87.09
2022-12-31T19:55:44.907Z,87.15
2022-12-31T19:58:35.558Z,87.16
2022-12-31T20:01:26.599Z,87.31
2022-12-31T20:04:15.878Z,87.49
2022-12-31T20:07:05.189Z,87.28
2022-12-31T20:09:54.416Z,87.04
2022-12-31T20:12:44.767Z,87.28
2022-12-31T20:15:35.709Z,87.45
2022-12-31T20:18:25.066Z,87.62
2022-12-31T20:21:17.999Z,87.33
2022-12-31T20:24:08.043Z,87.50
2022-12-31T20:26:57.333Z,87.55
2022-12-31T20:29:47.171Z,87.16
2022-12-31T20:32:38.120Z,87.16
2022-12-31T20:35:27.362Z,87.41
2022-12-31T20:38:17.022Z,87.38
2022-12-31T20:41:08.125Z,87.51
2022-12-31T20:43:57.464Z,87.59
2022-12-31T20:46:46.752Z,87.75
2022-12-31T20:50:09.865Z,87.76
2022-12-31T20:52:51.389Z,88.19
2022-12-31T20:55:42.487Z,88.81
2022-12-31T20:58:32.376Z,88.72
2022-12-31T21:01:22.762Z,88.88
2022-12-31T21:04:13.926Z,88.77
2022-12-31T21:07:06.999Z,88.26
2022-12-31T21:09:57.015Z,88.53
2022-12-31T21:12:53.761Z,88.51
2022-12-31T21:15:43.773Z,88.42
2022-12-31T21:18:33.799Z,88.35
2022-12-31T21:21:24.752Z,88.50
2022-12-31T21:24:23.255Z,88.26
2022-12-31T21:27:16.518Z,88.23
2022-12-31T21:30:19.023Z,88.31
2022-12-31T21:33:09.786Z,88.33
2022-12-31T21:36:04.823Z,88.02
2022-12-31T21:38:54.372Z,88.36
2022-12-31T21:41:55.071Z,88.37
2022-12-31T21:44:45.221Z,88.68
2022-12-31T21:47:52.142Z,88.69
2022-12-31T21:50:42.554Z,88.75
2022-12-31T21:53:36.933Z,88.44
2022-12-31T21:56:26.360Z,88.62
2022-12-31T21:59:34.371Z,88.89
2022-12-31T22:02:59.702Z,88.69
2022-12-31T22:05:53.926Z,89.05
2022-12-31T22:08:45.696Z,89.02
2022-12-31T22:11:35.073Z,89.07
2022-12-31T22:14:25.814Z,89.07
2022-12-31T22:17:15.244Z,89.02
2022-12-31T22:20:26.410Z,88.82
2022-12-31T22:23:16.038Z,88.73
2022-12-31T22:26:06.597Z,88.93
2022-12-31T22:28:59.524Z,88.70
2022-12-31T22:31:50.768Z,88.47
2022-12-31T22:34:40.161Z,88.60
2022-12-31T22:37:56.384Z,88.50
2022-12-31T22:40:38.861Z,88.37
2022-12-31T22:43:28.210Z,88.63
2022-12-31T22:46:19.744Z,88.71
2022-12-31T22:49:12.437Z,88.62
2022-12-31T22:52:04.358Z,88.67
2022-12-31T22:54:58.200Z,88.68
2022-12-31T22:57:47.642Z,88.52
2022-12-31T23:00:42.138Z,88.48
2022-12-31T23:03:31.660Z,88.42
2022-12-31T23:06:25.317Z,88.16
2022-12-31T23:09:34.155Z,87.83
2022-12-31T23:12:23.491Z,87.63
2022-12-31T23:15:30.118Z,86.88
2022-12-31T23:18:36.802Z,85.58
2022-12-31T23:21:44.920Z,86.02
2022-12-31T23:24:34.202Z,83.86
2022-12-31T23:27:23.680Z,84.22
2022-12-31T23:30:14.609Z,83.88
2022-12-31T23:33:03.916Z,83.36
2022-12-31T23:36:05.126Z,83.21
2022-12-31T23:38:57.596Z,83.00
2022-12-31T23:41:46.887Z,82.68
2022-12-31T23:44:36.188Z,83.03
2022-12-31T23:47:25.444Z,82.28
2022-12-31T23:50:14.702Z,82.49
2022-12-31T23:53:03.895Z,82.37
2022-12-31T23:55:54.621Z,81.96
2022-12-31T23:58:44.108Z,81.22
